TimeMDT,TemperatureF,Dew PointF,Humidity,Sea Level PressureIn,VisibilityMPH,Wind Direction,Wind SpeedMPH,Gust SpeedMPH,PrecipitationIn,Events,Conditions,WindDirDegrees,DateUTC
12:15 AM,49.8,47.5,92,30.35,10.0,Calm,Calm,-,N/A,,Mostly Cloudy,0,2013-07-30 06:15:00
12:35 AM,50.4,47.5,90,30.38,10.0,SW,8.1,-,N/A,,Mostly Cloudy,230,2013-07-30 06:35:00
12:55 AM,50.7,48.6,92,30.38,10.0,NNE,5.8,-,N/A,,Overcast,30,2013-07-30 06:55:00
1:15 AM,50.9,48.6,92,30.38,10.0,East,11.5,-,N/A,,Overcast,80,2013-07-30 07:15:00
1:35 AM,52.0,48.2,87,30.35,10.0,NE,12.7,-,N/A,,Overcast,50,2013-07-30 07:35:00
1:55 AM,53.8,46.4,76,30.35,10.0,ENE,13.8,-,N/A,,Scattered Clouds,60,2013-07-30 07:55:00
2:15 AM,53.2,46.4,78,30.36,10.0,Calm,Calm,-,N/A,,Clear,0,2013-07-30 08:15:00
2:35 AM,51.8,48.4,88,30.36,10.0,NNW,5.8,-,N/A,,Scattered Clouds,330,2013-07-30 08:35:00
2:55 AM,51.4,48.4,89,30.36,10.0,Calm,Calm,-,N/A,,Overcast,0,2013-07-30 08:55:00
3:15 AM,51.8,48.6,89,30.36,10.0,Calm,Calm,-,N/A,,Overcast,0,2013-07-30 09:15:00
3:35 AM,51.8,49.1,90,30.36,10.0,Calm,Calm,-,N/A,,Overcast,0,2013-07-30 09:35:00
3:55 AM,51.8,49.5,92,30.36,10.0,Calm,Calm,-,N/A,,Overcast,0,2013-07-30 09:55:00
4:15 AM,52.0,49.1,90,30.36,10.0,Calm,Calm,-,N/A,,Overcast,0,2013-07-30 10:15:00
4:35 AM,51.1,49.1,93,30.36,10.0,Calm,Calm,-,N/A,,Overcast,0,2013-07-30 10:35:00
4:55 AM,50.9,49.1,94,30.36,10.0,Calm,Calm,-,N/A,,Overcast,0,2013-07-30 10:55:00
5:15 AM,50.4,48.6,94,30.37,10.0,Calm,Calm,-,N/A,,Scattered Clouds,0,2013-07-30 11:15:00
5:35 AM,50.0,48.6,95,30.38,10.0,Calm,Calm,-,N/A,,Clear,0,2013-07-30 11:35:00
5:55 AM,48.7,47.5,95,30.38,10.0,ESE,3.5,-,N/A,,Clear,110,2013-07-30 11:55:00
6:15 AM,49.3,47.8,95,30.38,10.0,Calm,Calm,-,N/A,,Clear,0,2013-07-30 12:15:00
6:35 AM,49.1,47.8,95,30.39,10.0,Calm,Calm,-,N/A,,Clear,0,2013-07-30 12:35:00
6:55 AM,49.5,48.0,95,30.40,10.0,Calm,Calm,-,N/A,,Clear,0,2013-07-30 12:55:00
7:15 AM,51.6,48.4,89,30.41,10.0,Calm,Calm,-,N/A,,Scattered Clouds,0,2013-07-30 13:15:00
7:35 AM,50.4,48.4,93,30.42,10.0,Calm,Calm,-,N/A,,Scattered Clouds,0,2013-07-30 13:35:00
7:55 AM,52.2,49.1,89,30.42,10.0,Calm,Calm,-,N/A,,Scattered Clouds,0,2013-07-30 13:55:00
8:15 AM,52.0,49.1,90,30.43,10.0,Calm,Calm,-,N/A,,Clear,0,2013-07-30 14:15:00
8:35 AM,52.2,49.5,91,30.44,10.0,Calm,Calm,-,N/A,,Clear,0,2013-07-30 14:35:00
8:55 AM,54.9,49.1,81,30.44,10.0,Calm,Calm,-,N/A,,Clear,0,2013-07-30 14:55:00
9:15 AM,56.3,48.2,74,30.44,10.0,Calm,Calm,-,N/A,,Clear,0,2013-07-30 15:15:00
9:35 AM,59.9,48.7,67,30.44,10.0,Calm,Calm,-,N/A,,Clear,0,2013-07-30 15:35:00
9:55 AM,61.9,50.0,65,30.43,10.0,Calm,Calm,-,N/A,,Clear,0,2013-07-30 15:55:00
10:15 AM,65.1,46.4,51,30.43,10.0,Calm,Calm,-,N/A,,Clear,0,2013-07-30 16:15:00
10:35 AM,66.9,43.7,43,30.43,10.0,West,3.5,-,N/A,,Clear,260,2013-07-30 16:35:00
10:55 AM,68.7,42.4,39,30.44,10.0,SW,4.6,-,N/A,,Clear,220,2013-07-30 16:55:00
11:15 AM,69.3,41.4,36,30.44,10.0,WSW,8.1,-,N/A,,Clear,250,2013-07-30 17:15:00
11:35 AM,69.8,41.5,36,30.44,10.0,SSW,6.9,-,N/A,,Clear,210,2013-07-30 17:35:00
11:55 AM,71.1,41.5,34,30.44,10.0,Calm,Calm,-,N/A,,Scattered Clouds,0,2013-07-30 17:55:00
12:15 PM,70.3,41.7,35,30.43,10.0,Calm,Calm,-,N/A,,Mostly Cloudy,0,2013-07-30 18:15:00
12:35 PM,73.8,40.1,30,30.42,10.0,SSW,3.5,-,N/A,,Scattered Clouds,210,2013-07-30 18:35:00
12:55 PM,75.4,38.5,26,30.41,10.0,SSW,6.9,-,N/A,,Scattered Clouds,210,2013-07-30 18:55:00
1:15 PM,75.9,38.3,26,30.41,10.0,SSW,9.2,-,N/A,,Scattered Clouds,210,2013-07-30 19:15:00
1:35 PM,77.4,38.8,25,30.40,10.0,Calm,Calm,-,N/A,,Scattered Clouds,0,2013-07-30 19:35:00
1:55 PM,76.6,37.6,24,30.40,10.0,West,10.4,-,N/A,,Scattered Clouds,270,2013-07-30 19:55:00
2:15 PM,76.8,34.9,22,30.39,10.0,Calm,Calm,-,N/A,,Scattered Clouds,0,2013-07-30 20:15:00
2:35 PM,75.7,37.6,25,30.38,10.0,North,6.9,-,N/A,,Scattered Clouds,350,2013-07-30 20:35:00
2:55 PM,77.0,37.0,24,30.38,10.0,NNE,6.9,-,N/A,,Scattered Clouds,30,2013-07-30 20:55:00
3:15 PM,79.2,34.2,20,30.38,10.0,SW,3.5,-,N/A,,Scattered Clouds,230,2013-07-30 21:15:00
3:35 PM,79.9,30.9,17,30.37,10.0,WSW,9.2,-,N/A,,Scattered Clouds,250,2013-07-30 21:35:00
3:55 PM,81.1,29.1,15,30.37,10.0,SSW,8.1,-,N/A,,Mostly Cloudy,210,2013-07-30 21:55:00
4:15 PM,79.3,30.9,17,30.36,10.0,West,8.1,-,N/A,,Scattered Clouds,260,2013-07-30 22:15:00
4:35 PM,81.7,30.0,15,30.36,10.0,SSW,9.2,18.4,N/A,,Scattered Clouds,210,2013-07-30 22:35:00
4:55 PM,81.5,30.6,16,30.36,10.0,SW,5.8,17.3,N/A,,Mostly Cloudy,230,2013-07-30 22:55:00
5:15 PM,81.5,30.6,16,30.35,10.0,SSW,12.7,20.7,N/A,,Scattered Clouds,210,2013-07-30 23:15:00
5:35 PM,81.5,29.7,15,30.35,10.0,SW,9.2,-,N/A,,Clear,230,2013-07-30 23:35:00
5:55 PM,81.5,29.1,15,30.35,10.0,SW,9.2,-,N/A,,Clear,230,2013-07-30 23:55:00
6:15 PM,79.9,28.2,15,30.34,10.0,SW,11.5,17.3,N/A,,Clear,230,2013-07-31 00:15:00
6:35 PM,80.1,27.5,15,30.34,10.0,SW,10.4,-,N/A,,Clear,230,2013-07-31 00:35:00
6:55 PM,79.2,27.3,15,30.35,10.0,WSW,12.7,18.4,N/A,,Clear,250,2013-07-31 00:55:00
7:15 PM,77.2,29.1,17,30.36,10.0,West,9.2,16.1,N/A,,Clear,270,2013-07-31 01:15:00
7:35 PM,75.6,34.7,23,30.36,10.0,WNW,4.6,-,N/A,,Clear,300,2013-07-31 01:35:00
7:55 PM,72.7,36.7,27,30.36,10.0,WNW,3.5,-,N/A,,Clear,300,2013-07-31 01:55:00
8:15 PM,70.3,38.3,31,30.37,10.0,Calm,Calm,-,N/A,,Scattered Clouds,0,2013-07-31 02:15:00
8:35 PM,69.6,37.4,31,30.38,10.0,Calm,Calm,-,N/A,,Scattered Clouds,0,2013-07-31 02:35:00
8:55 PM,69.4,36.9,30,30.39,10.0,Calm,Calm,-,N/A,,Scattered Clouds,0,2013-07-31 02:55:00
9:15 PM,66.7,36.5,33,30.39,10.0,Calm,Calm,-,N/A,,Clear,0,2013-07-31 03:15:00
9:35 PM,63.5,41.7,45,30.40,10.0,ESE,8.1,-,N/A,,Clear,120,2013-07-31 03:35:00
9:55 PM,63.5,40.1,42,30.42,10.0,East,3.5,-,N/A,,Scattered Clouds,80,2013-07-31 03:55:00
10:15 PM,62.1,40.8,46,30.42,10.0,Calm,Calm,-,N/A,,Scattered Clouds,0,2013-07-31 04:15:00
10:35 PM,63.5,39.9,42,30.42,10.0,Calm,Calm,-,N/A,,Clear,0,2013-07-31 04:35:00
10:55 PM,60.6,41.7,50,30.42,10.0,Calm,Calm,-,N/A,,Clear,0,2013-07-31 04:55:00
11:15 PM,60.1,41.5,50,30.42,10.0,Calm,Calm,-,N/A,,Clear,0,2013-07-31 05:15:00
11:35 PM,58.3,42.3,55,30.43,10.0,Calm,Calm,-,N/A,,Clear,0,2013-07-31 05:35:00
11:55 PM,58.3,42.1,55,30.43,10.0,Calm,Calm,-,N/A,,Clear,0,2013-07-31 05:55:00